sensor_id;sensor_type;location;lat;lon;timestamp;P1;durP1;ratioP1;P2;durP2;ratioP2
67841;SDS011;54642;59.126;37.876;2022-10-23T00:00:33;4.80;;;2.00;;
67841;SDS011;54642;59.126;37.876;2022-10-23T00:02:59;3.53;;;2.03;;
67841;SDS011;54642;59.126;37.876;2022-10-23T00:05:26;4.25;;;2.53;;
67841;SDS011;54642;59.126;37.876;2022-10-23T00:07:53;4.20;;;2.53;;
67841;SDS011;54642;59.126;37.876;2022-10-23T00:10:22;4.07;;;2.47;;
67841;SDS011;54642;59.126;37.876;2022-10-23T00:12:49;3.65;;;2.80;;
67841;SDS011;54642;59.126;37.876;2022-10-23T00:15:17;4.35;;;2.83;;
67841;SDS011;54642;59.126;37.876;2022-10-23T00:17:44;6.22;;;2.45;;
67841;SDS011;54642;59.126;37.876;2022-10-23T00:20:10;4.20;;;2.70;;
67841;SDS011;54642;59.126;37.876;2022-10-23T00:22:37;3.80;;;2.20;;
67841;SDS011;54642;59.126;37.876;2022-10-23T00:25:04;3.83;;;2.58;;
67841;SDS011;54642;59.126;37.876;2022-10-23T00:27:30;3.75;;;2.20;;
67841;SDS011;54642;59.126;37.876;2022-10-23T00:29:56;4.35;;;2.30;;
67841;SDS011;54642;59.126;37.876;2022-10-23T00:32:22;4.30;;;2.72;;
67841;SDS011;54642;59.126;37.876;2022-10-23T00:34:49;5.03;;;2.40;;
67841;SDS011;54642;59.126;37.876;2022-10-23T00:37:15;4.70;;;2.40;;
67841;SDS011;54642;59.126;37.876;2022-10-23T00:39:40;5.22;;;2.55;;
67841;SDS011;54642;59.126;37.876;2022-10-23T00:42:06;3.65;;;2.20;;
67841;SDS011;54642;59.126;37.876;2022-10-23T00:47:01;3.47;;;2.05;;
67841;SDS011;54642;59.126;37.876;2022-10-23T00:49:27;4.00;;;2.33;;
67841;SDS011;54642;59.126;37.876;2022-10-23T00:51:54;5.82;;;2.55;;
67841;SDS011;54642;59.126;37.876;2022-10-23T00:54:24;3.55;;;2.03;;
67841;SDS011;54642;59.126;37.876;2022-10-23T00:56:55;3.90;;;2.72;;
67841;SDS011;54642;59.126;37.876;2022-10-23T00:59:23;4.20;;;2.80;;
67841;SDS011;54642;59.126;37.876;2022-10-23T01:01:50;4.82;;;3.03;;
67841;SDS011;54642;59.126;37.876;2022-10-23T01:04:16;4.28;;;2.72;;
67841;SDS011;54642;59.126;37.876;2022-10-23T01:06:45;4.45;;;2.40;;
67841;SDS011;54642;59.126;37.876;2022-10-23T01:09:21;3.53;;;2.17;;
67841;SDS011;54642;59.126;37.876;2022-10-23T01:15:22;6.57;;;2.75;;
67841;SDS011;54642;59.126;37.876;2022-10-23T01:17:51;5.57;;;2.97;;
67841;SDS011;54642;59.126;37.876;2022-10-23T01:31:09;5.90;;;3.38;;
67841;SDS011;54642;59.126;37.876;2022-10-23T01:33:42;4.90;;;3.08;;
67841;SDS011;54642;59.126;37.876;2022-10-23T01:36:15;5.00;;;2.83;;
67841;SDS011;54642;59.126;37.876;2022-10-23T01:39:10;5.07;;;2.67;;
67841;SDS011;54642;59.126;37.876;2022-10-23T01:41:45;5.72;;;2.92;;
67841;SDS011;54642;59.126;37.876;2022-10-23T01:44:23;4.78;;;2.92;;
67841;SDS011;54642;59.126;37.876;2022-10-23T01:46:54;5.13;;;3.72;;
67841;SDS011;54642;59.126;37.876;2022-10-23T01:49:22;6.28;;;4.40;;
67841;SDS011;54642;59.126;37.876;2022-10-23T01:51:54;5.47;;;3.20;;
67841;SDS011;54642;59.126;37.876;2022-10-23T01:54:25;5.65;;;3.55;;
67841;SDS011;54642;59.126;37.876;2022-10-23T01:56:56;7.05;;;3.97;;
67841;SDS011;54642;59.126;37.876;2022-10-23T01:59:28;6.22;;;3.25;;
67841;SDS011;54642;59.126;37.876;2022-10-23T02:01:59;7.80;;;2.92;;
67841;SDS011;54642;59.126;37.876;2022-10-23T02:04:33;4.78;;;3.63;;
67841;SDS011;54642;59.126;37.876;2022-10-23T02:07:03;6.25;;;3.45;;
67841;SDS011;54642;59.126;37.876;2022-10-23T02:09:29;6.78;;;3.75;;
67841;SDS011;54642;59.126;37.876;2022-10-23T02:12:06;6.88;;;3.92;;
67841;SDS011;54642;59.126;37.876;2022-10-23T02:20:41;6.32;;;2.90;;
67841;SDS011;54642;59.126;37.876;2022-10-23T02:23:20;6.95;;;3.55;;
67841;SDS011;54642;59.126;37.876;2022-10-23T02:25:55;6.68;;;3.75;;
67841;SDS011;54642;59.126;37.876;2022-10-23T02:28:29;6.82;;;3.25;;
67841;SDS011;54642;59.126;37.876;2022-10-23T02:31:02;5.97;;;3.78;;
67841;SDS011;54642;59.126;37.876;2022-10-23T02:33:31;5.65;;;3.67;;
67841;SDS011;54642;59.126;37.876;2022-10-23T02:35:59;6.05;;;3.33;;
67841;SDS011;54642;59.126;37.876;2022-10-23T02:38:27;5.15;;;3.10;;
67841;SDS011;54642;59.126;37.876;2022-10-23T02:41:07;6.38;;;3.55;;
67841;SDS011;54642;59.126;37.876;2022-10-23T02:43:42;8.13;;;3.90;;
67841;SDS011;54642;59.126;37.876;2022-10-23T02:49:16;6.90;;;3.40;;
67841;SDS011;54642;59.126;37.876;2022-10-23T02:54:37;5.25;;;3.28;;
67841;SDS011;54642;59.126;37.876;2022-10-23T02:57:22;7.07;;;3.25;;
67841;SDS011;54642;59.126;37.876;2022-10-23T03:02:38;7.32;;;3.40;;
67841;SDS011;54642;59.126;37.876;2022-10-23T03:05:13;6.20;;;3.20;;
67841;SDS011;54642;59.126;37.876;2022-10-23T03:07:44;5.20;;;3.20;;
67841;SDS011;54642;59.126;37.876;2022-10-23T03:10:11;5.40;;;3.10;;
67841;SDS011;54642;59.126;37.876;2022-10-23T03:12:37;9.25;;;3.58;;
67841;SDS011;54642;59.126;37.876;2022-10-23T03:15:06;5.90;;;3.65;;
67841;SDS011;54642;59.126;37.876;2022-10-23T03:17:32;5.65;;;3.00;;
67841;SDS011;54642;59.126;37.876;2022-10-23T03:19:59;4.88;;;2.92;;
67841;SDS011;54642;59.126;37.876;2022-10-23T03:22:25;5.20;;;3.28;;
67841;SDS011;54642;59.126;37.876;2022-10-23T03:24:50;5.75;;;3.67;;
67841;SDS011;54642;59.126;37.876;2022-10-23T03:27:16;6.93;;;3.53;;
67841;SDS011;54642;59.126;37.876;2022-10-23T03:29:42;6.25;;;3.20;;
67841;SDS011;54642;59.126;37.876;2022-10-23T03:32:08;5.85;;;3.60;;
67841;SDS011;54642;59.126;37.876;2022-10-23T03:34:34;5.35;;;3.08;;
67841;SDS011;54642;59.126;37.876;2022-10-23T03:37:02;7.45;;;3.15;;
67841;SDS011;54642;59.126;37.876;2022-10-23T03:39:30;5.65;;;3.05;;
67841;SDS011;54642;59.126;37.876;2022-10-23T03:41:56;6.65;;;3.63;;
67841;SDS011;54642;59.126;37.876;2022-10-23T03:44:21;5.55;;;3.03;;
67841;SDS011;54642;59.126;37.876;2022-10-23T03:46:47;5.07;;;2.75;;
67841;SDS011;54642;59.126;37.876;2022-10-23T03:49:13;5.47;;;3.38;;
67841;SDS011;54642;59.126;37.876;2022-10-23T03:51:42;7.72;;;3.03;;
67841;SDS011;54642;59.126;37.876;2022-10-23T03:54:09;5.38;;;3.25;;
67841;SDS011;54642;59.126;37.876;2022-10-23T03:56:36;11.60;;;2.75;;
67841;SDS011;54642;59.126;37.876;2022-10-23T03:59:02;6.07;;;2.35;;
67841;SDS011;54642;59.126;37.876;2022-10-23T04:01:28;5.32;;;3.03;;
67841;SDS011;54642;59.126;37.876;2022-10-23T04:03:54;6.00;;;3.20;;
67841;SDS011;54642;59.126;37.876;2022-10-23T04:06:22;6.95;;;2.85;;
67841;SDS011;54642;59.126;37.876;2022-10-23T04:08:51;5.32;;;3.45;;
67841;SDS011;54642;59.126;37.876;2022-10-23T04:11:17;4.63;;;2.85;;
67841;SDS011;54642;59.126;37.876;2022-10-23T04:13:44;7.18;;;2.85;;
67841;SDS011;54642;59.126;37.876;2022-10-23T04:16:10;5.95;;;3.10;;
67841;SDS011;54642;59.126;37.876;2022-10-23T04:18:38;6.65;;;2.70;;
67841;SDS011;54642;59.126;37.876;2022-10-23T04:21:04;6.03;;;2.83;;
67841;SDS011;54642;59.126;37.876;2022-10-23T04:23:31;3.95;;;2.55;;
67841;SDS011;54642;59.126;37.876;2022-10-23T04:25:57;4.57;;;2.42;;
67841;SDS011;54642;59.126;37.876;2022-10-23T04:28:24;6.22;;;2.42;;
67841;SDS011;54642;59.126;37.876;2022-10-23T04:30:51;5.85;;;3.08;;
67841;SDS011;54642;59.126;37.876;2022-10-23T04:33:17;5.40;;;2.88;;
67841;SDS011;54642;59.126;37.876;2022-10-23T04:35:43;5.60;;;2.55;;
67841;SDS011;54642;59.126;37.876;2022-10-23T04:38:09;5.63;;;2.67;;
67841;SDS011;54642;59.126;37.876;2022-10-23T04:40:36;5.57;;;3.28;;
67841;SDS011;54642;59.126;37.876;2022-10-23T04:43:03;4.90;;;2.42;;
67841;SDS011;54642;59.126;37.876;2022-10-23T04:45:33;7.25;;;2.95;;
67841;SDS011;54642;59.126;37.876;2022-10-23T04:47:59;12.43;;;3.22;;
67841;SDS011;54642;59.126;37.876;2022-10-23T04:50:25;5.53;;;2.70;;
67841;SDS011;54642;59.126;37.876;2022-10-23T04:53:25;5.05;;;3.20;;
67841;SDS011;54642;59.126;37.876;2022-10-23T04:56:12;6.63;;;2.75;;
67841;SDS011;54642;59.126;37.876;2022-10-23T05:01:15;9.82;;;3.05;;
67841;SDS011;54642;59.126;37.876;2022-10-23T05:03:41;5.80;;;2.70;;
67841;SDS011;54642;59.126;37.876;2022-10-23T05:06:08;10.00;;;3.30;;
67841;SDS011;54642;59.126;37.876;2022-10-23T05:09:12;9.25;;;3.10;;
67841;SDS011;54642;59.126;37.876;2022-10-23T05:12:04;5.53;;;2.78;;
67841;SDS011;54642;59.126;37.876;2022-10-23T05:14:30;6.35;;;3.00;;
67841;SDS011;54642;59.126;37.876;2022-10-23T05:17:03;6.47;;;2.95;;
67841;SDS011;54642;59.126;37.876;2022-10-23T05:19:50;5.50;;;3.05;;
67841;SDS011;54642;59.126;37.876;2022-10-23T05:22:21;6.40;;;3.55;;
67841;SDS011;54642;59.126;37.876;2022-10-23T05:24:52;13.25;;;7.43;;
67841;SDS011;54642;59.126;37.876;2022-10-23T05:27:23;6.88;;;3.35;;
67841;SDS011;54642;59.126;37.876;2022-10-23T05:29:50;6.70;;;3.33;;
67841;SDS011;54642;59.126;37.876;2022-10-23T05:32:19;5.95;;;3.40;;
67841;SDS011;54642;59.126;37.876;2022-10-23T05:34:46;5.60;;;2.75;;
67841;SDS011;54642;59.126;37.876;2022-10-23T05:37:13;4.75;;;2.83;;
67841;SDS011;54642;59.126;37.876;2022-10-23T05:39:41;6.65;;;3.85;;
67841;SDS011;54642;59.126;37.876;2022-10-23T05:42:12;5.97;;;3.03;;
67841;SDS011;54642;59.126;37.876;2022-10-23T05:44:40;6.13;;;3.08;;
67841;SDS011;54642;59.126;37.876;2022-10-23T05:47:08;7.18;;;3.47;;
67841;SDS011;54642;59.126;37.876;2022-10-23T05:49:53;5.43;;;3.00;;
67841;SDS011;54642;59.126;37.876;2022-10-23T05:52:51;6.40;;;3.15;;
67841;SDS011;54642;59.126;37.876;2022-10-23T05:55:36;5.85;;;3.50;;
67841;SDS011;54642;59.126;37.876;2022-10-23T05:58:29;6.80;;;2.70;;
67841;SDS011;54642;59.126;37.876;2022-10-23T06:01:12;5.63;;;2.72;;
67841;SDS011;54642;59.126;37.876;2022-10-23T06:06:29;9.07;;;3.30;;
67841;SDS011;54642;59.126;37.876;2022-10-23T06:08:55;4.22;;;2.35;;
67841;SDS011;54642;59.126;37.876;2022-10-23T06:11:22;5.60;;;3.15;;
67841;SDS011;54642;59.126;37.876;2022-10-23T06:13:56;6.45;;;3.38;;
67841;SDS011;54642;59.126;37.876;2022-10-23T06:16:25;5.82;;;3.17;;
67841;SDS011;54642;59.126;37.876;2022-10-23T06:18:52;6.35;;;3.30;;
67841;SDS011;54642;59.126;37.876;2022-10-23T06:21:18;6.60;;;3.28;;
67841;SDS011;54642;59.126;37.876;2022-10-23T06:23:47;4.95;;;2.78;;
67841;SDS011;54642;59.126;37.876;2022-10-23T06:26:19;10.13;;;3.33;;
67841;SDS011;54642;59.126;37.876;2022-10-23T06:31:29;5.78;;;3.15;;
67841;SDS011;54642;59.126;37.876;2022-10-23T06:33:56;9.82;;;3.70;;
67841;SDS011;54642;59.126;37.876;2022-10-23T06:36:26;5.50;;;3.30;;
67841;SDS011;54642;59.126;37.876;2022-10-23T06:38:58;6.90;;;3.42;;
67841;SDS011;54642;59.126;37.876;2022-10-23T06:41:43;8.18;;;4.03;;
67841;SDS011;54642;59.126;37.876;2022-10-23T06:44:29;6.25;;;3.28;;
67841;SDS011;54642;59.126;37.876;2022-10-23T06:46:58;8.98;;;4.78;;
67841;SDS011;54642;59.126;37.876;2022-10-23T06:49:44;5.75;;;3.42;;
67841;SDS011;54642;59.126;37.876;2022-10-23T06:52:10;6.15;;;3.38;;
67841;SDS011;54642;59.126;37.876;2022-10-23T06:54:36;8.55;;;3.53;;
67841;SDS011;54642;59.126;37.876;2022-10-23T06:57:05;6.78;;;3.45;;
67841;SDS011;54642;59.126;37.876;2022-10-23T06:59:40;7.47;;;3.30;;
67841;SDS011;54642;59.126;37.876;2022-10-23T07:02:07;5.13;;;2.95;;
67841;SDS011;54642;59.126;37.876;2022-10-23T07:04:34;7.50;;;3.53;;
67841;SDS011;54642;59.126;37.876;2022-10-23T07:07:03;7.78;;;3.40;;
67841;SDS011;54642;59.126;37.876;2022-10-23T07:09:40;6.72;;;4.05;;
67841;SDS011;54642;59.126;37.876;2022-10-23T07:12:24;5.93;;;3.75;;
67841;SDS011;54642;59.126;37.876;2022-10-23T07:15:04;5.70;;;3.53;;
67841;SDS011;54642;59.126;37.876;2022-10-23T07:17:30;7.28;;;3.20;;
67841;SDS011;54642;59.126;37.876;2022-10-23T07:19:57;7.15;;;3.80;;
67841;SDS011;54642;59.126;37.876;2022-10-23T07:22:23;8.85;;;3.60;;
67841;SDS011;54642;59.126;37.876;2022-10-23T07:24:59;6.57;;;3.28;;
67841;SDS011;54642;59.126;37.876;2022-10-23T07:27:34;5.57;;;3.10;;
67841;SDS011;54642;59.126;37.876;2022-10-23T07:30:01;10.75;;;4.35;;
67841;SDS011;54642;59.126;37.876;2022-10-23T07:32:31;6.85;;;3.75;;
67841;SDS011;54642;59.126;37.876;2022-10-23T07:35:06;20.95;;;7.10;;
67841;SDS011;54642;59.126;37.876;2022-10-23T07:37:35;9.35;;;5.32;;
67841;SDS011;54642;59.126;37.876;2022-10-23T07:40:06;8.05;;;4.22;;
67841;SDS011;54642;59.126;37.876;2022-10-23T07:42:39;7.40;;;3.60;;
67841;SDS011;54642;59.126;37.876;2022-10-23T07:45:06;13.50;;;4.25;;
67841;SDS011;54642;59.126;37.876;2022-10-23T07:47:35;7.00;;;4.25;;
67841;SDS011;54642;59.126;37.876;2022-10-23T07:50:00;8.40;;;4.53;;
67841;SDS011;54642;59.126;37.876;2022-10-23T07:52:27;13.57;;;4.25;;
67841;SDS011;54642;59.126;37.876;2022-10-23T07:55:14;8.70;;;3.88;;
67841;SDS011;54642;59.126;37.876;2022-10-23T07:57:56;8.32;;;3.83;;
67841;SDS011;54642;59.126;37.876;2022-10-23T08:00:38;6.25;;;3.22;;
67841;SDS011;54642;59.126;37.876;2022-10-23T08:03:26;4.80;;;3.30;;
67841;SDS011;54642;59.126;37.876;2022-10-23T08:05:53;7.32;;;3.20;;
67841;SDS011;54642;59.126;37.876;2022-10-23T08:08:21;7.00;;;4.15;;
67841;SDS011;54642;59.126;37.876;2022-10-23T08:10:49;5.40;;;3.45;;
67841;SDS011;54642;59.126;37.876;2022-10-23T08:13:23;12.20;;;3.38;;
67841;SDS011;54642;59.126;37.876;2022-10-23T08:15:55;6.72;;;3.83;;
67841;SDS011;54642;59.126;37.876;2022-10-23T08:18:39;5.88;;;3.38;;
67841;SDS011;54642;59.126;37.876;2022-10-23T08:21:07;5.07;;;3.60;;
67841;SDS011;54642;59.126;37.876;2022-10-23T08:23:34;6.78;;;4.43;;
67841;SDS011;54642;59.126;37.876;2022-10-23T08:26:01;7.93;;;3.53;;
67841;SDS011;54642;59.126;37.876;2022-10-23T08:28:30;5.63;;;3.30;;
67841;SDS011;54642;59.126;37.876;2022-10-23T08:30:58;5.80;;;3.30;;
67841;SDS011;54642;59.126;37.876;2022-10-23T08:33:31;8.13;;;3.70;;
67841;SDS011;54642;59.126;37.876;2022-10-23T08:35:57;5.30;;;4.25;;
67841;SDS011;54642;59.126;37.876;2022-10-23T08:38:28;5.70;;;3.20;;
67841;SDS011;54642;59.126;37.876;2022-10-23T08:40:55;7.00;;;3.25;;
67841;SDS011;54642;59.126;37.876;2022-10-23T08:43:42;8.15;;;3.60;;
67841;SDS011;54642;59.126;37.876;2022-10-23T08:46:27;5.65;;;3.85;;
67841;SDS011;54642;59.126;37.876;2022-10-23T08:49:39;9.90;;;4.15;;
67841;SDS011;54642;59.126;37.876;2022-10-23T08:55:04;7.88;;;3.72;;
67841;SDS011;54642;59.126;37.876;2022-10-23T08:57:56;6.63;;;3.33;;
67841;SDS011;54642;59.126;37.876;2022-10-23T09:00:42;6.90;;;3.63;;
67841;SDS011;54642;59.126;37.876;2022-10-23T09:03:11;8.07;;;4.07;;
67841;SDS011;54642;59.126;37.876;2022-10-23T09:22:43;6.53;;;3.60;;
67841;SDS011;54642;59.126;37.876;2022-10-23T09:25:15;6.32;;;3.78;;
67841;SDS011;54642;59.126;37.876;2022-10-23T09:27:47;7.00;;;3.55;;
67841;SDS011;54642;59.126;37.876;2022-10-23T09:33:11;8.02;;;4.13;;
67841;SDS011;54642;59.126;37.876;2022-10-23T09:35:59;5.13;;;3.22;;
67841;SDS011;54642;59.126;37.876;2022-10-23T09:41:24;7.30;;;3.58;;
67841;SDS011;54642;59.126;37.876;2022-10-23T09:44:25;6.10;;;3.95;;
67841;SDS011;54642;59.126;37.876;2022-10-23T09:46:48;5.55;;;3.50;;
67841;SDS011;54642;59.126;37.876;2022-10-23T09:49:23;6.13;;;3.63;;
67841;SDS011;54642;59.126;37.876;2022-10-23T09:54:38;6.22;;;3.67;;
67841;SDS011;54642;59.126;37.876;2022-10-23T09:59:52;13.52;;;6.00;;
67841;SDS011;54642;59.126;37.876;2022-10-23T10:05:30;9.18;;;4.63;;
67841;SDS011;54642;59.126;37.876;2022-10-23T10:08:03;9.93;;;4.63;;
67841;SDS011;54642;59.126;37.876;2022-10-23T10:16:11;8.27;;;4.20;;
67841;SDS011;54642;59.126;37.876;2022-10-23T10:18:42;10.30;;;4.78;;
67841;SDS011;54642;59.126;37.876;2022-10-23T10:21:23;6.63;;;4.15;;
67841;SDS011;54642;59.126;37.876;2022-10-23T10:24:05;6.88;;;4.25;;
67841;SDS011;54642;59.126;37.876;2022-10-23T10:26:45;10.00;;;4.97;;
67841;SDS011;54642;59.126;37.876;2022-10-23T10:38:18;7.68;;;4.63;;
67841;SDS011;54642;59.126;37.876;2022-10-23T10:40:49;7.75;;;4.25;;
67841;SDS011;54642;59.126;37.876;2022-10-23T10:48:50;7.78;;;4.15;;
67841;SDS011;54642;59.126;37.876;2022-10-23T10:57:32;8.27;;;4.80;;
67841;SDS011;54642;59.126;37.876;2022-10-23T11:00:05;7.38;;;4.00;;
67841;SDS011;54642;59.126;37.876;2022-10-23T11:02:44;7.18;;;4.43;;
67841;SDS011;54642;59.126;37.876;2022-10-23T11:07:51;6.82;;;3.78;;
67841;SDS011;54642;59.126;37.876;2022-10-23T11:10:22;8.80;;;4.45;;
67841;SDS011;54642;59.126;37.876;2022-10-23T11:12:48;7.65;;;4.18;;
67841;SDS011;54642;59.126;37.876;2022-10-23T11:15:24;8.45;;;4.72;;
67841;SDS011;54642;59.126;37.876;2022-10-23T11:17:55;9.30;;;3.75;;
67841;SDS011;54642;59.126;37.876;2022-10-23T11:39:27;6.93;;;3.80;;
67841;SDS011;54642;59.126;37.876;2022-10-23T11:44:42;9.65;;;5.35;;
67841;SDS011;54642;59.126;37.876;2022-10-23T11:47:25;6.13;;;3.92;;
67841;SDS011;54642;59.126;37.876;2022-10-23T11:52:31;6.57;;;4.00;;
67841;SDS011;54642;59.126;37.876;2022-10-23T11:55:01;9.13;;;4.70;;
67841;SDS011;54642;59.126;37.876;2022-10-23T11:57:39;8.18;;;4.35;;
67841;SDS011;54642;59.126;37.876;2022-10-23T12:00:21;7.53;;;4.32;;
67841;SDS011;54642;59.126;37.876;2022-10-23T12:02:51;7.32;;;4.45;;
67841;SDS011;54642;59.126;37.876;2022-10-23T12:05:30;10.05;;;4.10;;
67841;SDS011;54642;59.126;37.876;2022-10-23T12:08:01;6.93;;;4.30;;
67841;SDS011;54642;59.126;37.876;2022-10-23T12:10:30;11.38;;;4.90;;
67841;SDS011;54642;59.126;37.876;2022-10-23T12:13:00;11.23;;;4.50;;
67841;SDS011;54642;59.126;37.876;2022-10-23T12:15:29;7.38;;;4.63;;
67841;SDS011;54642;59.126;37.876;2022-10-23T12:20:55;9.60;;;5.97;;
67841;SDS011;54642;59.126;37.876;2022-10-23T12:26:41;8.77;;;3.92;;
67841;SDS011;54642;59.126;37.876;2022-10-23T12:29:23;12.75;;;4.68;;
67841;SDS011;54642;59.126;37.876;2022-10-23T12:40:15;8.40;;;4.47;;
67841;SDS011;54642;59.126;37.876;2022-10-23T12:42:48;6.82;;;4.35;;
67841;SDS011;54642;59.126;37.876;2022-10-23T12:47:48;9.30;;;4.30;;
67841;SDS011;54642;59.126;37.876;2022-10-23T12:52:55;16.60;;;8.45;;
67841;SDS011;54642;59.126;37.876;2022-10-23T12:55:24;9.85;;;5.22;;
67841;SDS011;54642;59.126;37.876;2022-10-23T12:57:51;9.45;;;4.80;;
67841;SDS011;54642;59.126;37.876;2022-10-23T13:00:22;10.70;;;4.60;;
67841;SDS011;54642;59.126;37.876;2022-10-23T13:02:59;11.13;;;4.82;;
67841;SDS011;54642;59.126;37.876;2022-10-23T13:05:26;10.00;;;4.78;;
67841;SDS011;54642;59.126;37.876;2022-10-23T13:07:53;7.07;;;4.60;;
67841;SDS011;54642;59.126;37.876;2022-10-23T13:10:32;8.50;;;4.40;;
67841;SDS011;54642;59.126;37.876;2022-10-23T13:13:03;10.57;;;4.63;;
67841;SDS011;54642;59.126;37.876;2022-10-23T13:15:41;9.48;;;4.72;;
67841;SDS011;54642;59.126;37.876;2022-10-23T13:18:08;8.35;;;4.70;;
67841;SDS011;54642;59.126;37.876;2022-10-23T13:23:27;9.63;;;5.43;;
67841;SDS011;54642;59.126;37.876;2022-10-23T13:25:59;6.35;;;4.35;;
67841;SDS011;54642;59.126;37.876;2022-10-23T13:28:42;9.30;;;5.32;;
67841;SDS011;54642;59.126;37.876;2022-10-23T13:33:37;7.03;;;4.70;;
67841;SDS011;54642;59.126;37.876;2022-10-23T13:39:23;6.82;;;4.57;;
67841;SDS011;54642;59.126;37.876;2022-10-23T13:41:33;8.15;;;4.25;;
67841;SDS011;54642;59.126;37.876;2022-10-23T13:44:02;8.32;;;5.18;;
67841;SDS011;54642;59.126;37.876;2022-10-23T13:46:28;6.60;;;4.45;;
67841;SDS011;54642;59.126;37.876;2022-10-23T13:48:54;7.68;;;4.68;;
67841;SDS011;54642;59.126;37.876;2022-10-23T13:51:27;8.30;;;4.32;;
67841;SDS011;54642;59.126;37.876;2022-10-23T13:53:56;8.30;;;4.38;;
67841;SDS011;54642;59.126;37.876;2022-10-23T13:56:23;8.20;;;4.80;;
67841;SDS011;54642;59.126;37.876;2022-10-23T13:58:50;10.30;;;5.05;;
67841;SDS011;54642;59.126;37.876;2022-10-23T14:01:21;8.07;;;4.75;;
67841;SDS011;54642;59.126;37.876;2022-10-23T14:03:50;9.73;;;4.03;;
67841;SDS011;54642;59.126;37.876;2022-10-23T14:06:17;9.45;;;5.32;;
67841;SDS011;54642;59.126;37.876;2022-10-23T14:08:43;16.40;;;5.90;;
67841;SDS011;54642;59.126;37.876;2022-10-23T14:11:09;10.25;;;5.13;;
67841;SDS011;54642;59.126;37.876;2022-10-23T14:13:37;8.57;;;5.40;;
67841;SDS011;54642;59.126;37.876;2022-10-23T14:16:03;12.02;;;5.63;;
67841;SDS011;54642;59.126;37.876;2022-10-23T14:18:29;8.63;;;5.28;;
67841;SDS011;54642;59.126;37.876;2022-10-23T14:21:01;12.30;;;5.50;;
67841;SDS011;54642;59.126;37.876;2022-10-23T14:23:28;13.43;;;4.95;;
67841;SDS011;54642;59.126;37.876;2022-10-23T14:26:01;14.43;;;5.50;;
67841;SDS011;54642;59.126;37.876;2022-10-23T14:28:31;13.60;;;5.82;;
67841;SDS011;54642;59.126;37.876;2022-10-23T14:31:01;7.88;;;4.72;;
67841;SDS011;54642;59.126;37.876;2022-10-23T14:33:28;10.82;;;5.40;;
67841;SDS011;54642;59.126;37.876;2022-10-23T14:35:54;11.75;;;5.55;;
67841;SDS011;54642;59.126;37.876;2022-10-23T14:38:20;12.98;;;5.70;;
67841;SDS011;54642;59.126;37.876;2022-10-23T14:40:46;9.93;;;4.80;;
67841;SDS011;54642;59.126;37.876;2022-10-23T14:43:12;7.80;;;4.93;;
67841;SDS011;54642;59.126;37.876;2022-10-23T14:45:38;8.23;;;5.05;;
67841;SDS011;54642;59.126;37.876;2022-10-23T14:48:03;8.93;;;5.00;;
67841;SDS011;54642;59.126;37.876;2022-10-23T14:50:30;11.27;;;5.40;;
67841;SDS011;54642;59.126;37.876;2022-10-23T14:52:56;13.30;;;5.10;;
67841;SDS011;54642;59.126;37.876;2022-10-23T14:55:22;8.70;;;4.68;;
67841;SDS011;54642;59.126;37.876;2022-10-23T14:57:49;7.72;;;5.10;;
67841;SDS011;54642;59.126;37.876;2022-10-23T15:00:19;10.40;;;5.00;;
67841;SDS011;54642;59.126;37.876;2022-10-23T15:02:45;12.07;;;4.78;;
67841;SDS011;54642;59.126;37.876;2022-10-23T15:05:10;7.88;;;5.05;;
67841;SDS011;54642;59.126;37.876;2022-10-23T15:07:36;11.82;;;5.30;;
67841;SDS011;54642;59.126;37.876;2022-10-23T15:10:03;7.93;;;5.60;;
67841;SDS011;54642;59.126;37.876;2022-10-23T15:12:29;7.93;;;5.40;;
67841;SDS011;54642;59.126;37.876;2022-10-23T15:14:55;16.63;;;5.97;;
67841;SDS011;54642;59.126;37.876;2022-10-23T15:17:21;9.50;;;5.57;;
67841;SDS011;54642;59.126;37.876;2022-10-23T15:19:46;11.40;;;5.82;;
67841;SDS011;54642;59.126;37.876;2022-10-23T15:22:12;12.10;;;5.68;;
67841;SDS011;54642;59.126;37.876;2022-10-23T15:24:38;8.75;;;5.05;;
67841;SDS011;54642;59.126;37.876;2022-10-23T15:27:04;9.43;;;4.68;;
67841;SDS011;54642;59.126;37.876;2022-10-23T15:29:30;19.48;;;9.68;;
67841;SDS011;54642;59.126;37.876;2022-10-23T15:31:57;10.68;;;5.10;;
67841;SDS011;54642;59.126;37.876;2022-10-23T15:34:24;6.80;;;4.43;;
67841;SDS011;54642;59.126;37.876;2022-10-23T15:36:52;17.90;;;5.72;;
67841;SDS011;54642;59.126;37.876;2022-10-23T15:39:21;9.30;;;4.70;;
67841;SDS011;54642;59.126;37.876;2022-10-23T15:41:49;12.02;;;4.40;;
67841;SDS011;54642;59.126;37.876;2022-10-23T15:44:18;7.47;;;4.25;;
67841;SDS011;54642;59.126;37.876;2022-10-23T15:46:45;6.72;;;4.50;;
67841;SDS011;54642;59.126;37.876;2022-10-23T15:49:11;19.20;;;5.05;;
67841;SDS011;54642;59.126;37.876;2022-10-23T15:51:37;12.13;;;4.95;;
67841;SDS011;54642;59.126;37.876;2022-10-23T15:54:04;8.55;;;5.07;;
67841;SDS011;54642;59.126;37.876;2022-10-23T15:56:32;9.35;;;4.63;;
67841;SDS011;54642;59.126;37.876;2022-10-23T15:58:58;7.78;;;4.63;;
67841;SDS011;54642;59.126;37.876;2022-10-23T16:01:25;8.18;;;5.13;;
67841;SDS011;54642;59.126;37.876;2022-10-23T16:03:51;9.75;;;4.43;;
67841;SDS011;54642;59.126;37.876;2022-10-23T16:06:17;7.25;;;4.60;;
67841;SDS011;54642;59.126;37.876;2022-10-23T16:08:44;9.85;;;4.68;;
67841;SDS011;54642;59.126;37.876;2022-10-23T16:11:12;7.40;;;4.55;;
67841;SDS011;54642;59.126;37.876;2022-10-23T16:13:41;7.68;;;4.60;;
67841;SDS011;54642;59.126;37.876;2022-10-23T16:16:07;12.38;;;5.85;;
67841;SDS011;54642;59.126;37.876;2022-10-23T16:18:34;9.93;;;4.15;;
67841;SDS011;54642;59.126;37.876;2022-10-23T16:21:00;8.25;;;4.55;;
67841;SDS011;54642;59.126;37.876;2022-10-23T16:23:25;12.15;;;5.00;;
67841;SDS011;54642;59.126;37.876;2022-10-23T16:25:52;8.73;;;4.53;;
67841;SDS011;54642;59.126;37.876;2022-10-23T16:28:19;9.32;;;4.15;;
67841;SDS011;54642;59.126;37.876;2022-10-23T16:30:45;8.68;;;4.70;;
67841;SDS011;54642;59.126;37.876;2022-10-23T16:33:11;7.38;;;4.40;;
67841;SDS011;54642;59.126;37.876;2022-10-23T16:35:37;10.48;;;4.78;;
67841;SDS011;54642;59.126;37.876;2022-10-23T16:38:12;20.27;;;11.88;;
67841;SDS011;54642;59.126;37.876;2022-10-23T16:40:38;10.30;;;4.60;;
67841;SDS011;54642;59.126;37.876;2022-10-23T16:43:36;8.68;;;4.35;;
67841;SDS011;54642;59.126;37.876;2022-10-23T16:46:11;9.13;;;4.35;;
67841;SDS011;54642;59.126;37.876;2022-10-23T16:48:39;7.30;;;3.90;;
67841;SDS011;54642;59.126;37.876;2022-10-23T16:51:09;7.80;;;4.35;;
67841;SDS011;54642;59.126;37.876;2022-10-23T16:53:37;8.70;;;3.63;;
67841;SDS011;54642;59.126;37.876;2022-10-23T16:56:04;7.60;;;4.75;;
67841;SDS011;54642;59.126;37.876;2022-10-23T16:58:32;8.05;;;4.47;;
67841;SDS011;54642;59.126;37.876;2022-10-23T17:00:59;6.93;;;3.88;;
67841;SDS011;54642;59.126;37.876;2022-10-23T17:03:36;6.50;;;3.65;;
67841;SDS011;54642;59.126;37.876;2022-10-23T17:06:04;6.82;;;4.00;;
67841;SDS011;54642;59.126;37.876;2022-10-23T17:08:32;7.82;;;4.38;;
67841;SDS011;54642;59.126;37.876;2022-10-23T17:11:40;10.15;;;5.30;;
67841;SDS011;54642;59.126;37.876;2022-10-23T17:13:52;7.65;;;4.40;;
67841;SDS011;54642;59.126;37.876;2022-10-23T17:16:25;6.35;;;4.00;;
67841;SDS011;54642;59.126;37.876;2022-10-23T17:18:56;11.23;;;4.85;;
67841;SDS011;54642;59.126;37.876;2022-10-23T17:21:22;6.18;;;4.18;;
67841;SDS011;54642;59.126;37.876;2022-10-23T17:23:48;7.60;;;4.47;;
67841;SDS011;54642;59.126;37.876;2022-10-23T17:26:16;6.28;;;4.18;;
67841;SDS011;54642;59.126;37.876;2022-10-23T17:28:43;8.88;;;4.22;;